Portada
METAR-TAF:

METAR-TAF

Aeroports :

Orenburg, Rússia

latitud: 51-46-48N, longitud: 055-07-12E, altitud: 109 m

Observació

L'informe es va fer fa 36 minuts, a les 03:00 UTC
Vent 6 kt del Sud-Est
Temperatura -11°C
Humitat 92%
Pressió 1027 hPa
Visibilitat 10 km o més
sense núvols per sota de 1500 mi sense presència de cumulonimbus.

METAR: UWOO 240300Z 13003MPS CAVOK M11/M12 Q1027 R08/810253 NOSIG RMK QFE759/1013

Hora: 08:36 (03:36 UTC)

Pronòstic

L'informe es va fer fa 1 hora i 54 minuts, a les 01:42 UTC
Pronòstic vàlid del 24 a les 03 UTC al 25 a les 03 UTC
Vent 6 kt del Sud/Sud-Est amb ràfegues de 16 kt
Visibilitat 10 km o més
Cel ennuvolat a una alçada de 2000 ft
Temporalment
l' 24 a les 03 UTC al 25 a les 03 UTC
Vent 12 kt del Sud amb ràfegues de 23 kt
Visibilitat: 6000 m
Cel ennuvolat a una alçada de 1600 ft
neu

TAF: UWOO 240142Z 2403/2503 15003G08MPS 9999 BKN020 TXM03/2409Z TNM10/2503Z TEMPO 2403/2503 17006G12MPS 6000 -SN BKN016

Observacions i pronòstics meteorològics de més de 4000 aeroports (METAR i TAF).

Les estacions disponibles són els punts grocs i vermells al mapa.

Posi el ratolí al punt desitjat per veure el nom de l'estació.

Feu clic per veure les observacions i els pronòstics meteorològics.

Per canviar el mapa: feu clic els botons verds amb una creu de color negre per apropar; al botó verd amb un guió per allunyar la imatge; o en les fletxes verdes per a mapes adjacents.


METAR-TAF: